Time;durP1;ratioP1;P1;durP2;ratioP2;P2;SDS_P1;SDS_P2;PMS_P1;PMS_P2;Temp;Humidity;BMP_temperature;BMP_pressure;BME280_temperature;BME280_humidity;BME280_pressure;Samples;Min_cycle;Max_cycle;Signal;HPM_P1;HPM_P2
2023/04/22 00:01:47;;;;;;;6.47;4.80;;;;;;;9.46;63.25;93616.56;5065465;28;20066;-74
2023/04/22 00:04:13;;;;;;;17.30;5.00;;;;;;;9.39;63.16;93606.41;5065506;28;20092;-74
2023/04/22 00:06:39;;;;;;;16.67;5.22;;;;;;;9.35;63.32;93608.13;5065325;28;20017;-74
2023/04/22 00:09:04;;;;;;;11.07;4.55;;;;;;;9.33;63.36;93605.75;5065198;28;20323;-74
2023/04/22 00:11:30;;;;;;;10.40;4.80;;;;;;;9.35;63.07;93606.22;5065022;28;20331;-74
2023/04/22 00:13:55;;;;;;;8.35;4.70;;;;;;;9.32;63.06;93596.22;5065211;28;20017;-74
2023/04/22 00:16:21;;;;;;;10.52;5.18;;;;;;;9.29;62.92;93602.16;5065010;28;20036;-74
2023/04/22 00:18:47;;;;;;;10.05;5.38;;;;;;;9.28;62.66;93605.13;5064962;28;20025;-74
2023/04/22 00:21:12;;;;;;;9.40;5.00;;;;;;;9.28;62.78;93605.13;5065321;28;20221;-73
2023/04/22 00:23:38;;;;;;;15.90;5.30;;;;;;;9.27;62.93;93606.22;5065018;28;20052;-74
2023/04/22 00:26:03;;;;;;;7.65;4.30;;;;;;;9.29;62.91;93599.50;5065023;28;20029;-74
2023/04/22 00:28:29;;;;;;;7.07;4.38;;;;;;;9.31;62.54;93599.19;5064796;28;20267;-74
2023/04/22 00:30:54;;;;;;;9.07;4.10;;;;;;;9.28;62.63;93591.81;5064928;28;20017;-74
2023/04/22 00:33:20;;;;;;;8.20;4.90;;;;;;;9.21;62.83;93594.94;5064943;28;20025;-73
2023/04/22 00:35:45;;;;;;;8.00;4.97;;;;;;;9.19;63.21;93605.09;5064732;28;20040;-73
2023/04/22 00:38:11;;;;;;;14.43;4.28;;;;;;;9.15;63.17;93602.28;5064775;28;20088;-74
2023/04/22 00:40:37;;;;;;;7.60;4.38;;;;;;;9.13;63.05;93609.00;5064858;28;20036;-73
2023/04/22 00:43:02;;;;;;;8.32;4.20;;;;;;;9.13;63.33;93601.03;5064653;28;20029;-73
2023/04/22 00:45:29;;;;;;;16.20;4.22;;;;;;;9.14;63.55;93607.91;5064441;28;20017;-73
2023/04/22 00:47:55;;;;;;;13.93;4.78;;;;;;;9.12;63.50;93602.09;5064526;28;20082;-73
2023/04/22 00:50:21;;;;;;;9.18;4.78;;;;;;;9.07;63.88;93610.25;5064422;28;20041;-73
2023/04/22 00:52:46;;;;;;;8.70;4.13;;;;;;;9.03;63.86;93620.69;5064570;28;20024;-73
2023/04/22 00:55:12;;;;;;;11.75;3.92;;;;;;;8.95;64.07;93622.25;5064539;28;20214;-73
2023/04/22 00:57:38;;;;;;;11.15;4.60;;;;;;;8.84;64.01;93620.97;5063128;28;20021;-73
2023/04/22 01:00:05;;;;;;;13.23;4.63;;;;;;;8.75;64.47;93628.91;5064255;28;20040;-73
2023/04/22 01:02:31;;;;;;;8.30;3.90;;;;;;;8.66;64.81;93617.44;5064337;28;20088;-74
2023/04/22 01:04:57;;;;;;;7.22;4.75;;;;;;;8.58;65.27;93623.50;5064139;28;20353;-74
2023/04/22 01:07:23;;;;;;;10.68;5.82;;;;;;;8.55;66.15;93632.09;5064034;28;20025;-74
2023/04/22 01:09:48;;;;;;;13.02;7.15;;;;;;;8.51;66.91;93634.59;5064002;28;20055;-73
2023/04/22 01:12:14;;;;;;;16.80;7.10;;;;;;;8.50;67.45;93632.22;5063995;28;20049;-73
2023/04/22 01:14:41;;;;;;;15.38;7.07;;;;;;;8.46;67.83;93626.72;5064199;28;20021;-74
2023/04/22 01:17:08;;;;;;;18.63;7.90;;;;;;;8.41;68.41;93619.69;5063969;28;20021;-73
2023/04/22 01:19:34;;;;;;;14.38;8.25;;;;;;;8.41;68.77;93635.63;5063821;28;20045;-73
2023/04/22 01:22:01;;;;;;;17.95;9.13;;;;;;;8.44;69.06;93627.03;5064050;28;20334;-73
2023/04/22 01:24:27;;;;;;;19.10;9.65;;;;;;;8.46;69.14;93620.63;5063229;28;20025;-73
2023/04/22 01:26:52;;;;;;;21.85;10.05;;;;;;;8.48;69.39;93624.56;5063796;28;20047;-73
2023/04/22 01:29:18;;;;;;;21.58;9.80;;;;;;;8.45;69.40;93630.50;5063588;28;20024;-73
2023/04/22 01:31:44;;;;;;;22.20;10.45;;;;;;;8.40;69.47;93626.03;5063779;28;20016;-73
2023/04/22 01:34:09;;;;;;;18.45;9.13;;;;;;;8.37;69.28;93617.91;5063932;28;20024;-73
2023/04/22 01:36:35;;;;;;;16.92;8.57;;;;;;;8.37;69.27;93623.22;5063513;28;20029;-73
2023/04/22 01:39:01;;;;;;;14.88;8.68;;;;;;;8.27;69.34;93626.16;5063541;28;20027;-73
2023/04/22 01:41:26;;;;;;;20.45;7.78;;;;;;;8.24;69.28;93623.00;5063647;28;20010;-74
2023/04/22 01:43:53;;;;;;;18.48;7.68;;;;;;;8.21;69.36;93625.47;5062410;28;20017;-73
2023/04/22 01:46:18;;;;;;;18.25;9.02;;;;;;;8.16;69.25;93617.63;5063303;28;20017;-73
2023/04/22 01:48:50;;;;;;;14.77;7.95;;;;;;;8.09;69.52;93614.63;5063283;28;20023;-74
2023/04/22 01:51:17;;;;;;;13.87;8.63;;;;;;;8.08;69.71;93608.53;5063410;28;20021;-74
2023/04/22 01:53:42;;;;;;;21.98;8.48;;;;;;;8.08;69.82;93616.50;5063458;28;20013;-73
2023/04/22 01:56:08;;;;;;;17.33;8.68;;;;;;;8.10;69.74;93614.34;5063385;28;20027;-73
2023/04/22 01:58:34;;;;;;;12.48;7.90;;;;;;;8.13;70.19;93611.06;5063013;28;20021;-74
2023/04/22 02:01:00;;;;;;;14.90;8.07;;;;;;;8.15;69.83;93613.41;5063122;28;20048;-74
2023/04/22 02:03:25;;;;;;;17.65;7.95;;;;;;;8.17;69.94;93619.22;5063045;28;20028;-73
2023/04/22 02:05:51;;;;;;;14.85;7.85;;;;;;;8.19;69.87;93612.50;5062954;28;20323;-74
2023/04/22 02:08:16;;;;;;;12.55;7.50;;;;;;;8.23;69.94;93612.69;5062824;28;20113;-74
2023/04/22 02:10:41;;;;;;;13.30;7.78;;;;;;;8.30;70.14;93614.91;5063041;28;20092;-74
2023/04/22 02:13:07;;;;;;;18.08;7.78;;;;;;;8.29;69.70;93616.00;5062940;28;20115;-74
2023/04/22 02:15:32;;;;;;;17.08;8.07;;;;;;;8.35;69.79;93609.47;5062833;28;20071;-75
2023/04/22 02:17:58;;;;;;;12.85;7.57;;;;;;;8.35;69.63;93610.25;5062804;28;20100;-76
2023/04/22 02:20:24;;;;;;;15.90;7.53;;;;;;;8.40;69.93;93610.09;5062741;28;20021;-75
2023/04/22 02:22:50;;;;;;;16.17;7.70;;;;;;;8.46;69.84;93608.13;5062980;28;20023;-75
2023/04/22 02:25:15;;;;;;;12.07;7.53;;;;;;;8.50;69.81;93611.75;5062599;28;20024;-75
2023/04/22 02:27:41;;;;;;;11.73;6.60;;;;;;;8.52;69.61;93617.53;5062813;28;20028;-75
2023/04/22 02:30:07;;;;;;;13.73;7.32;;;;;;;8.53;69.53;93621.78;5062825;28;20211;-75
2023/04/22 02:32:35;;;;;;;12.00;6.43;;;;;;;8.56;69.44;93615.84;5062806;28;20025;-75
2023/04/22 02:35:00;;;;;;;16.48;6.95;;;;;;;8.57;69.50;93627.28;5062051;28;20036;-72
2023/04/22 02:37:26;;;;;;;15.07;7.93;;;;;;;8.60;69.58;93621.34;5062155;28;20021;-73
2023/04/22 02:39:51;;;;;;;21.63;8.95;;;;;;;8.59;69.59;93625.88;5062627;28;20047;-73
2023/04/22 02:42:17;;;;;;;11.90;7.32;;;;;;;8.62;69.69;93629.78;5062875;28;20017;-73
2023/04/22 02:44:42;;;;;;;16.52;7.50;;;;;;;8.62;69.72;93624.47;5062866;28;20276;-73
2023/04/22 02:47:08;;;;;;;12.05;7.00;;;;;;;8.63;69.87;93628.72;5062313;28;20337;-73
2023/04/22 02:49:33;;;;;;;11.10;7.13;;;;;;;8.61;69.63;93626.34;5062414;28;20051;-73
2023/04/22 02:51:59;;;;;;;12.70;8.07;;;;;;;8.60;69.55;93626.66;5062440;28;20016;-72
2023/04/22 02:54:24;;;;;;;22.13;8.40;;;;;;;8.60;69.68;93624.75;5062290;28;20211;-72
2023/04/22 02:56:50;;;;;;;13.60;8.38;;;;;;;8.59;69.43;93631.19;5062112;28;20021;-72
2023/04/22 02:59:15;;;;;;;14.23;8.15;;;;;;;8.58;69.50;93624.28;5062245;28;20025;-72
2023/04/22 03:01:40;;;;;;;16.98;8.32;;;;;;;8.58;69.75;93634.13;5062557;28;20025;-72
2023/04/22 03:04:06;;;;;;;17.33;9.07;;;;;;;8.54;69.70;93633.97;5061048;28;20375;-72
2023/04/22 03:06:31;;;;;;;14.65;8.50;;;;;;;8.52;69.79;93638.78;5062272;28;20052;-72
2023/04/22 03:08:57;;;;;;;14.65;9.35;;;;;;;8.50;69.84;93640.97;5062199;28;20024;-73
2023/04/22 03:11:22;;;;;;;17.13;9.10;;;;;;;8.47;70.13;93630.97;5062241;28;20021;-73
2023/04/22 03:13:48;;;;;;;17.48;9.45;;;;;;;8.47;70.47;93643.44;5062222;28;20090;-73
2023/04/22 03:16:16;;;;;;;15.43;9.13;;;;;;;8.41;70.42;93640.16;5062241;28;20025;-73
2023/04/22 03:18:41;;;;;;;15.90;9.32;;;;;;;8.37;70.51;93637.28;5062155;28;20076;-73
2023/04/22 03:21:07;;;;;;;12.35;8.35;;;;;;;8.35;70.29;93631.50;5062316;28;20025;-72
2023/04/22 03:23:32;;;;;;;15.30;8.45;;;;;;;8.30;70.20;93628.94;5062246;28;20021;-73
2023/04/22 03:25:58;;;;;;;20.38;10.38;;;;;;;8.27;70.62;93634.09;5061992;28;20025;-71
2023/04/22 03:28:23;;;;;;;18.70;10.90;;;;;;;8.25;70.66;93637.06;5061980;28;20092;-73
2023/04/22 03:30:49;;;;;;;17.65;8.52;;;;;;;8.27;70.53;93639.41;5062198;28;20037;-71
2023/04/22 03:33:15;;;;;;;18.73;9.98;;;;;;;8.26;70.74;93648.47;5062023;28;20044;-71
2023/04/22 03:35:40;;;;;;;14.13;8.43;;;;;;;8.26;70.67;93637.84;5062057;28;20028;-71
2023/04/22 03:38:06;;;;;;;16.77;8.75;;;;;;;8.27;70.43;93642.06;5061816;28;20096;-71
2023/04/22 03:40:32;;;;;;;17.00;9.57;;;;;;;8.24;70.43;93652.22;5062068;28;20222;-71
2023/04/22 03:42:57;;;;;;;14.68;8.07;;;;;;;8.23;70.44;93650.63;5062155;28;20313;-71
2023/04/22 03:45:23;;;;;;;14.15;7.93;;;;;;;8.23;70.27;93655.94;5062233;28;20101;-71
2023/04/22 03:47:48;;;;;;;16.13;7.93;;;;;;;8.20;70.55;93656.56;5064196;28;20021;-71
2023/04/22 03:50:14;;;;;;;17.77;7.88;;;;;;;8.22;70.67;93651.72;5065560;28;20307;-72
2023/04/22 03:52:39;;;;;;;17.17;8.45;;;;;;;8.22;70.82;93657.03;5065570;28;20364;-71
2023/04/22 03:55:05;;;;;;;14.75;8.65;;;;;;;8.24;70.59;93662.84;5065516;28;20027;-71
2023/04/22 03:57:30;;;;;;;17.45;8.52;;;;;;;8.23;70.70;93653.28;5065491;28;20103;-71
2023/04/22 03:59:56;;;;;;;14.63;9.50;;;;;;;8.27;70.85;93655.34;5065343;28;20027;-71
2023/04/22 04:02:21;;;;;;;20.45;9.23;;;;;;;8.31;70.85;93659.75;5065282;28;20024;-71
2023/04/22 04:04:46;;;;;;;16.98;8.07;;;;;;;8.33;71.13;93662.88;5065251;28;20100;-71
2023/04/22 04:07:12;;;;;;;18.45;9.15;;;;;;;8.34;71.10;93666.31;5064295;28;20195;-71
2023/04/22 04:09:38;;;;;;;21.85;10.13;;;;;;;8.38;71.10;93661.97;5065498;28;20269;-72
2023/04/22 04:12:04;;;;;;;20.90;9.65;;;;;;;8.41;71.11;93672.03;5064880;28;20044;-72
2023/04/22 04:14:29;;;;;;;15.07;8.80;;;;;;;8.44;71.13;93668.75;5065150;28;20059;-72
2023/04/22 04:16:55;;;;;;;16.35;9.32;;;;;;;8.49;70.96;93671.28;5065083;28;20029;-72
2023/04/22 04:19:20;;;;;;;20.70;8.88;;;;;;;8.55;70.49;93667.41;5064819;28;20043;-72
2023/04/22 04:21:46;;;;;;;15.43;9.55;;;;;;;8.56;70.92;93673.50;5065074;28;20020;-73
2023/04/22 04:24:11;;;;;;;14.88;9.88;;;;;;;8.59;71.13;93670.25;5063825;28;20024;-73
2023/04/22 04:26:37;;;;;;;24.55;10.02;;;;;;;8.60;71.32;93663.84;5064942;28;20318;-73
2023/04/22 04:29:04;;;;;;;17.55;10.15;;;;;;;8.66;71.33;93667.16;5064943;28;20028;-72
2023/04/22 04:31:29;;;;;;;17.85;9.02;;;;;;;8.79;70.35;93668.91;5064844;28;20029;-72
2023/04/22 04:33:56;;;;;;;17.65;9.40;;;;;;;8.80;70.09;93668.63;5064848;28;20088;-72
2023/04/22 04:36:24;;;;;;;17.00;9.07;;;;;;;8.87;70.00;93662.84;5064702;28;20025;-72
2023/04/22 04:38:50;;;;;;;18.20;9.98;;;;;;;8.91;69.85;93676.31;5064539;28;20330;-72
2023/04/22 04:41:15;;;;;;;20.45;10.85;;;;;;;8.91;70.32;93687.72;5064775;28;20017;-72
2023/04/22 04:43:41;;;;;;;20.42;11.32;;;;;;;8.97;70.29;93681.19;5064744;28;20017;-72
2023/04/22 04:46:07;;;;;;;22.95;13.43;;;;;;;8.97;70.23;93694.47;5064545;28;20070;-71
2023/04/22 04:48:34;;;;;;;19.15;11.23;;;;;;;9.03;70.05;93697.81;5064567;28;20036;-71
2023/04/22 04:51:00;;;;;;;19.80;11.68;;;;;;;9.08;69.72;93705.66;5064306;28;20025;-70
2023/04/22 04:53:25;;;;;;;23.13;10.43;;;;;;;9.11;69.28;93699.72;5064398;28;20027;-71
2023/04/22 04:55:51;;;;;;;24.15;11.65;;;;;;;9.15;69.24;93707.88;5064357;28;20091;-71
2023/04/22 04:58:16;;;;;;;16.80;10.43;;;;;;;9.20;69.29;93707.75;5063021;28;20023;-71
2023/04/22 05:00:42;;;;;;;22.75;11.23;;;;;;;9.27;69.00;93707.28;5064441;28;20024;-71
2023/04/22 05:03:07;;;;;;;40.38;14.27;;;;;;;9.37;68.95;93718.41;5064474;28;20322;-71
2023/04/22 05:05:33;;;;;;;28.42;14.48;;;;;;;9.42;68.70;93715.63;5064013;28;20032;-71
2023/04/22 05:07:58;;;;;;;27.85;11.90;;;;;;;9.48;68.54;93718.91;5064154;28;20045;-71
2023/04/22 05:10:24;;;;;;;20.83;11.60;;;;;;;9.55;68.12;93713.94;5064162;28;20025;-71
2023/04/22 05:12:50;;;;;;;21.95;11.85;;;;;;;9.61;67.78;93718.03;5063896;28;20238;-71
2023/04/22 05:15:15;;;;;;;23.27;11.95;;;;;;;9.68;67.61;93714.13;5064021;28;20020;-71
2023/04/22 05:17:41;;;;;;;28.60;10.80;;;;;;;9.72;66.89;93715.84;5064049;28;20025;-71
2023/04/22 05:20:07;;;;;;;25.40;12.77;;;;;;;9.73;66.80;93711.28;5063944;28;20028;-71
2023/04/22 05:22:35;;;;;;;20.65;10.70;;;;;;;9.75;66.80;93717.09;5063850;28;20041;-71
2023/04/22 05:25:00;;;;;;;22.75;11.85;;;;;;;9.75;67.03;93725.88;5063642;28;20061;-71
2023/04/22 05:27:25;;;;;;;28.17;9.98;;;;;;;9.79;66.52;93721.50;5063767;28;20091;-72
2023/04/22 05:29:51;;;;;;;16.95;9.30;;;;;;;9.79;66.72;93729.50;5063554;28;20020;-71
2023/04/22 05:32:17;;;;;;;18.52;11.48;;;;;;;9.79;67.16;93721.50;5063694;28;20156;-71
2023/04/22 05:34:42;;;;;;;25.60;10.70;;;;;;;9.83;66.88;93725.09;5063824;28;20013;-72
2023/04/22 05:37:09;;;;;;;19.13;10.73;;;;;;;9.86;66.79;93725.59;5063491;28;20246;-72
2023/04/22 05:39:35;;;;;;;20.33;10.40;;;;;;;9.82;67.24;93726.19;5063288;28;20021;-72
2023/04/22 05:42:00;;;;;;;18.92;10.35;;;;;;;9.81;67.04;93727.31;5063488;28;20051;-72
2023/04/22 05:44:26;;;;;;;19.92;11.45;;;;;;;9.87;67.31;93732.47;5063298;28;20035;-72
2023/04/22 05:46:51;;;;;;;18.75;9.93;;;;;;;9.88;67.26;93726.06;5063406;28;20027;-73
2023/04/22 05:49:17;;;;;;;21.60;10.63;;;;;;;9.87;67.46;93732.47;5063276;28;20041;-72
2023/04/22 05:51:42;;;;;;;15.95;10.27;;;;;;;9.91;67.43;93720.91;5062245;28;20016;-71
2023/04/22 05:54:07;;;;;;;16.35;9.98;;;;;;;9.92;67.29;93719.78;5063162;28;20036;-71
2023/04/22 05:56:33;;;;;;;19.27;9.90;;;;;;;9.96;66.91;93727.94;5063315;28;20078;-72
2023/04/22 05:58:58;;;;;;;15.75;10.00;;;;;;;9.96;66.88;93723.41;5063092;28;20105;-72
2023/04/22 06:01:24;;;;;;;15.18;9.90;;;;;;;9.97;66.28;93724.16;5063265;28;20021;-72
2023/04/22 06:03:50;;;;;;;17.83;9.68;;;;;;;9.99;66.17;93716.66;5063074;28;20035;-71
2023/04/22 06:06:15;;;;;;;17.00;10.77;;;;;;;9.94;66.51;93714.16;5063017;28;20055;-71
2023/04/22 06:08:41;;;;;;;20.80;10.73;;;;;;;10.05;66.49;93731.38;5063322;28;20095;-72
2023/04/22 06:11:09;;;;;;;18.95;10.23;;;;;;;10.13;66.54;93725.28;5062850;28;20025;-71
2023/04/22 06:13:34;;;;;;;21.73;10.55;;;;;;;10.20;66.45;93722.94;5063036;28;20334;-71
2023/04/22 06:16:00;;;;;;;18.05;10.50;;;;;;;10.24;66.37;93720.44;5063008;28;20021;-71
2023/04/22 06:18:25;;;;;;;22.50;9.85;;;;;;;10.33;65.74;93723.13;5061753;28;20070;-72
2023/04/22 06:20:51;;;;;;;21.60;10.50;;;;;;;10.37;65.98;93724.06;5062973;28;20025;-73
2023/04/22 06:23:17;;;;;;;16.92;9.43;;;;;;;10.39;65.35;93719.19;5062769;28;20311;-70
2023/04/22 06:25:42;;;;;;;15.90;9.40;;;;;;;10.47;64.75;93722.97;5062994;28;20081;-71
2023/04/22 06:28:08;;;;;;;20.35;10.13;;;;;;;10.39;65.09;93719.97;5062945;28;20310;-72
2023/04/22 06:30:34;;;;;;;16.83;10.13;;;;;;;10.45;65.63;93720.59;5062873;28;20040;-71
2023/04/22 06:32:59;;;;;;;16.15;9.73;;;;;;;10.49;65.51;93726.09;5062724;28;20031;-68
2023/04/22 06:35:25;;;;;;;25.02;10.75;;;;;;;10.57;65.73;93730.63;5062385;28;20032;-70
2023/04/22 06:37:51;;;;;;;19.25;10.30;;;;;;;10.71;66.13;93725.13;5062651;28;20051;-69
2023/04/22 06:40:17;;;;;;;16.95;10.00;;;;;;;10.83;64.37;93738.59;5062389;28;20048;-69
2023/04/22 06:42:42;;;;;;;20.60;10.85;;;;;;;10.88;64.00;93722.41;5062511;28;20032;-68
2023/04/22 06:45:11;;;;;;;18.42;12.35;;;;;;;10.94;64.17;93728.38;5062525;28;20094;-68
2023/04/22 06:47:37;;;;;;;18.75;10.32;;;;;;;11.05;63.72;93732.25;5062609;28;20032;-69
2023/04/22 06:50:03;;;;;;;20.30;10.88;;;;;;;11.21;63.43;93735.16;5062593;28;20023;-69
2023/04/22 06:52:28;;;;;;;17.92;10.00;;;;;;;11.41;62.41;93737.13;5062405;28;20017;-69
2023/04/22 06:54:54;;;;;;;16.77;9.77;;;;;;;11.51;61.59;93735.22;5062719;28;20377;-69
2023/04/22 06:57:19;;;;;;;22.05;10.63;;;;;;;11.49;61.12;93730.19;5062412;28;20024;-69
2023/04/22 06:59:45;;;;;;;22.40;10.93;;;;;;;11.45;61.11;93732.72;5062346;28;20017;-69
2023/04/22 07:02:10;;;;;;;19.48;10.77;;;;;;;11.55;61.71;93733.47;5062678;28;20039;-68
2023/04/22 07:04:36;;;;;;;17.88;10.55;;;;;;;11.68;61.71;93737.00;5062447;28;20025;-70
2023/04/22 07:07:01;;;;;;;18.05;10.68;;;;;;;11.76;60.26;93736.97;5062201;28;20025;-71
2023/04/22 07:09:27;;;;;;;33.58;10.18;;;;;;;11.84;59.92;93732.69;5062182;28;20021;-70
2023/04/22 07:11:53;;;;;;;18.95;9.55;;;;;;;11.89;60.02;93743.22;5062105;28;20037;-70
2023/04/22 07:14:18;;;;;;;15.95;9.00;;;;;;;11.94;58.95;93732.34;5062606;28;20040;-71
2023/04/22 07:16:44;;;;;;;16.73;8.93;;;;;;;12.04;58.11;93731.94;5062281;28;20036;-69
2023/04/22 07:19:09;;;;;;;15.18;8.40;;;;;;;12.09;58.21;93733.66;5062424;28;20087;-70
2023/04/22 07:21:35;;;;;;;15.95;8.70;;;;;;;12.09;58.36;93739.00;5062535;28;20028;-69
2023/04/22 07:24:00;;;;;;;20.20;8.40;;;;;;;12.13;58.28;93745.25;5065982;28;20032;-69
2023/04/22 07:26:26;;;;;;;12.52;8.88;;;;;;;12.19;57.80;93746.63;5065818;28;20032;-70
2023/04/22 07:28:51;;;;;;;15.75;9.30;;;;;;;12.31;58.42;93739.78;5065857;28;20058;-71
2023/04/22 07:31:17;;;;;;;17.52;8.32;;;;;;;12.47;57.79;93738.06;5066234;28;20084;-70
2023/04/22 07:33:42;;;;;;;14.40;7.72;;;;;;;12.67;56.19;93739.16;5066203;28;20048;-70
2023/04/22 07:36:08;;;;;;;17.73;8.60;;;;;;;12.75;56.37;93745.56;5066005;28;20119;-71
2023/04/22 07:38:33;;;;;;;15.65;7.57;;;;;;;12.87;56.11;93742.91;5065900;28;20071;-70
2023/04/22 07:40:59;;;;;;;16.73;7.60;;;;;;;12.88;56.70;93744.47;5065818;28;20021;-72
2023/04/22 07:43:24;;;;;;;13.07;6.95;;;;;;;13.02;56.99;93736.16;5065755;28;20037;-68
2023/04/22 07:45:50;;;;;;;12.50;7.25;;;;;;;13.17;54.64;93748.13;5065255;28;20199;-68
2023/04/22 07:48:15;;;;;;;11.20;6.35;;;;;;;13.20;53.47;93737.53;5065572;28;20025;-68
2023/04/22 07:50:41;;;;;;;15.65;6.13;;;;;;;13.21;53.30;93741.00;5066053;28;20016;-68
2023/04/22 07:53:06;;;;;;;14.82;5.85;;;;;;;13.19;52.57;93741.31;5065828;28;20199;-68
2023/04/22 07:55:32;;;;;;;17.30;6.47;;;;;;;13.22;53.53;93735.28;5065547;28;20017;-68
2023/04/22 07:57:59;;;;;;;16.08;5.78;;;;;;;13.29;52.68;93740.16;5065479;28;20071;-68
2023/04/22 08:00:25;;;;;;;14.40;5.95;;;;;;;13.29;52.76;93742.00;5065583;28;20028;-68
2023/04/22 08:02:50;;;;;;;11.23;6.32;;;;;;;13.28;52.23;93733.19;5065320;28;20215;-68
2023/04/22 08:05:16;;;;;;;9.85;5.53;;;;;;;13.23;53.38;93728.06;5065270;28;20027;-69
2023/04/22 08:07:41;;;;;;;15.07;6.03;;;;;;;13.32;52.54;93731.44;5065357;28;20027;-68
2023/04/22 08:10:07;;;;;;;19.00;6.25;;;;;;;13.42;52.28;93727.56;5063955;28;20028;-68
2023/04/22 08:12:34;;;;;;;12.77;5.65;;;;;;;13.47;51.40;93716.59;5064826;28;20460;-68
2023/04/22 08:14:59;;;;;;;8.48;5.28;;;;;;;13.50;51.82;93728.56;5065132;28;20027;-68
2023/04/22 08:17:25;;;;;;;13.25;5.35;;;;;;;13.52;51.99;93727.13;5063867;28;20048;-68
2023/04/22 08:19:51;;;;;;;12.52;5.05;;;;;;;13.58;50.52;93720.41;5065078;28;20021;-69
2023/04/22 08:22:17;;;;;;;7.57;4.78;;;;;;;13.67;51.28;93722.97;5064882;28;20040;-70
2023/04/22 08:24:42;;;;;;;15.10;6.20;;;;;;;13.72;50.66;93724.63;5065198;28;20040;-68
2023/04/22 08:27:08;;;;;;;9.82;5.25;;;;;;;13.74;50.55;93723.22;5065377;28;20092;-68
2023/04/22 08:29:33;;;;;;;10.85;5.28;;;;;;;13.86;51.13;93725.09;5064908;28;20036;-68
2023/04/22 08:31:59;;;;;;;13.50;6.70;;;;;;;14.02;50.96;93711.78;5064775;28;20025;-68
2023/04/22 08:34:26;;;;;;;11.32;6.25;;;;;;;14.13;50.25;93715.56;5064825;28;20017;-67
2023/04/22 08:36:52;;;;;;;13.88;5.47;;;;;;;14.22;49.04;93713.53;5064694;28;20105;-68
2023/04/22 08:39:17;;;;;;;14.27;5.43;;;;;;;14.31;48.75;93707.25;5064776;28;20032;-68
2023/04/22 08:41:44;;;;;;;7.65;4.78;;;;;;;14.36;48.51;93715.06;5064931;28;20051;-68
2023/04/22 08:44:10;;;;;;;11.93;5.38;;;;;;;14.41;48.94;93710.25;5064604;28;20029;-68
2023/04/22 08:46:36;;;;;;;11.10;5.25;;;;;;;14.43;47.83;93707.19;5064587;28;20055;-68
2023/04/22 08:49:02;;;;;;;10.82;5.20;;;;;;;14.47;46.81;93708.09;5064702;28;20031;-68
2023/04/22 08:51:32;;;;;;;16.42;5.15;;;;;;;14.31;46.97;93691.97;5063314;28;20333;-67
2023/04/22 08:53:57;;;;;;;9.50;4.40;;;;;;;14.35;47.18;93700.06;5064140;28;20252;-68
2023/04/22 08:56:23;;;;;;;14.15;4.50;;;;;;;14.35;46.98;93697.41;5064317;28;20032;-68
2023/04/22 08:58:50;;;;;;;8.90;4.97;;;;;;;14.40;47.06;93689.91;5064373;28;20025;-68
2023/04/22 09:01:16;;;;;;;8.90;4.55;;;;;;;14.50;47.21;93688.63;5064121;28;20025;-68
2023/04/22 09:03:42;;;;;;;9.00;3.95;;;;;;;14.54;45.64;93691.44;5064519;28;20032;-68
2023/04/22 09:06:10;;;;;;;8.38;3.75;;;;;;;14.53;45.24;93685.28;5064380;28;20295;-68
2023/04/22 09:08:35;;;;;;;9.60;3.88;;;;;;;14.48;44.01;93685.53;5063949;28;20104;-68
2023/04/22 09:11:02;;;;;;;13.02;4.18;;;;;;;14.48;45.03;93688.19;5064167;28;20326;-68
2023/04/22 09:13:28;;;;;;;6.55;3.58;;;;;;;14.52;44.17;93673.00;5063907;28;20051;-68
2023/04/22 09:15:53;;;;;;;8.70;3.55;;;;;;;14.52;43.59;93693.66;5063892;28;20017;-68
2023/04/22 09:18:19;;;;;;;8.63;3.63;;;;;;;14.52;43.49;93691.75;5063871;28;20070;-68
2023/04/22 09:20:48;;;;;;;13.65;5.40;;;;;;;14.55;44.50;93685.72;5064247;28;20227;-68
2023/04/22 09:23:14;;;;;;;12.93;3.92;;;;;;;14.67;44.95;93679.53;5063828;28;20025;-69
2023/04/22 09:25:39;;;;;;;19.10;4.43;;;;;;;14.84;44.22;93678.47;5063989;28;20071;-69
2023/04/22 09:28:10;;;;;;;7.65;3.65;;;;;;;15.02;42.73;93682.38;5063989;28;20094;-68
2023/04/22 09:30:36;;;;;;;10.15;4.45;;;;;;;15.13;43.46;93666.53;5063576;28;20044;-68
2023/04/22 09:33:03;;;;;;;9.98;3.92;;;;;;;15.28;43.00;93662.28;5063818;28;20063;-66
2023/04/22 09:35:30;;;;;;;14.18;4.05;;;;;;;15.43;41.44;93660.72;5063588;28;20040;-69
2023/04/22 09:37:57;;;;;;;9.43;3.20;;;;;;;15.44;41.10;93663.06;5063423;28;20147;-71
2023/04/22 09:40:22;;;;;;;7.63;3.42;;;;;;;15.46;41.20;93662.72;5063643;28;20023;-71
2023/04/22 09:42:52;;;;;;;9.30;3.28;;;;;;;15.42;41.04;93651.88;5063458;28;20017;-71
2023/04/22 09:45:36;;;;;;;12.63;3.67;;;;;;;15.50;40.04;93662.81;5062912;28;20017;-72
2023/04/22 09:48:09;;;;;;;6.10;3.70;;;;;;;15.58;39.80;93669.91;5063463;28;20168;-74
2023/04/22 09:50:37;;;;;;;6.47;3.03;;;;;;;15.58;37.72;93659.16;5063412;28;20040;-72
2023/04/22 09:53:08;;;;;;;9.80;3.13;;;;;;;15.65;38.13;93646.66;5063168;28;20020;-71
2023/04/22 09:55:36;;;;;;;7.93;2.20;;;;;;;15.60;35.76;93651.53;5062931;28;20238;-72
2023/04/22 09:58:10;;;;;;;8.38;3.00;;;;;;;15.70;35.59;93650.97;5063024;28;20028;-72
2023/04/22 10:00:40;;;;;;;11.02;3.20;;;;;;;15.77;34.72;93651.19;5063049;28;20068;-71
2023/04/22 10:03:06;;;;;;;6.38;4.03;;;;;;;15.92;39.06;93659.56;5062950;28;20067;-71
2023/04/22 10:05:36;;;;;;;8.30;3.72;;;;;;;16.00;39.31;93650.50;5062969;28;20257;-72
2023/04/22 10:08:06;;;;;;;11.65;3.75;;;;;;;16.20;38.95;93641.31;5063066;28;20318;-71
2023/04/22 10:10:33;;;;;;;11.35;4.20;;;;;;;16.34;38.76;93648.09;5062925;28;20028;-72
2023/04/22 10:12:59;;;;;;;15.40;4.35;;;;;;;16.37;39.08;93644.72;5062736;28;20343;-72
2023/04/22 10:15:26;;;;;;;5.63;1.83;;;;;;;16.36;38.92;93643.16;5062804;28;20013;-72
2023/04/22 10:17:53;;;;;;;9.80;2.50;;;;;;;16.40;38.73;93644.78;5062833;28;20025;-72
2023/04/22 10:20:20;;;;;;;9.95;2.25;;;;;;;16.42;38.21;93655.19;5062706;28;20025;-71
2023/04/22 10:22:45;;;;;;;11.32;2.58;;;;;;;16.56;37.66;93649.31;5062683;28;20036;-72
2023/04/22 10:25:22;;;;;;;12.75;2.70;;;;;;;16.66;37.60;93646.03;5062972;28;20025;-71
2023/04/22 10:28:08;;;;;;;7.90;1.98;;;;;;;16.87;38.30;93636.81;5062675;28;20218;-72
2023/04/22 10:30:36;;;;;;;5.18;2.20;;;;;;;17.11;37.89;93641.09;5062819;28;20048;-72
2023/04/22 10:33:20;;;;;;;8.07;2.13;;;;;;;17.30;37.54;93641.03;5062503;28;20219;-72
2023/04/22 10:36:07;;;;;;;11.38;2.42;;;;;;;17.47;35.95;93644.34;5062679;28;20017;-72
2023/04/22 10:38:40;;;;;;;6.00;2.08;;;;;;;17.61;36.04;93641.88;5062399;28;20036;-72
2023/04/22 10:41:06;;;;;;;9.68;1.90;;;;;;;17.75;35.21;93636.69;5062462;28;20080;-72
2023/04/22 10:43:41;;;;;;;12.77;2.10;;;;;;;17.74;34.79;93640.50;5062426;28;20017;-72
2023/04/22 10:46:27;;;;;;;4.50;1.88;;;;;;;17.83;33.98;93646.47;5062456;28;20231;-72
2023/04/22 10:48:55;;;;;;;6.40;2.40;;;;;;;17.84;33.96;93642.63;5062233;28;20031;-72
2023/04/22 10:51:50;;;;;;;11.18;2.28;;;;;;;17.85;34.05;93643.41;5062403;28;20040;-72
2023/04/22 10:54:24;;;;;;;5.10;1.75;;;;;;;17.94;35.24;93643.13;5062367;28;20088;-71
2023/04/22 10:57:09;;;;;;;9.57;3.10;;;;;;;18.12;34.94;93638.75;5063549;28;20039;-71
2023/04/22 10:59:44;;;;;;;5.85;2.53;;;;;;;18.22;33.59;93635.41;5066604;28;20080;-71
2023/04/22 11:02:12;;;;;;;7.57;2.55;;;;;;;18.27;32.59;93634.31;5066598;28;20017;-71
2023/04/22 11:04:38;;;;;;;5.75;2.13;;;;;;;18.28;33.29;93630.47;5066282;28;20056;-71
2023/04/22 11:07:16;;;;;;;7.57;2.08;;;;;;;18.39;34.01;93636.00;5066169;28;20029;-71
2023/04/22 11:09:44;;;;;;;3.05;1.80;;;;;;;18.54;33.64;93629.63;5066082;28;20033;-71
2023/04/22 11:12:43;;;;;;;10.98;2.42;;;;;;;18.73;33.01;93636.75;5065003;28;20059;-71
2023/04/22 11:15:15;;;;;;;9.75;2.53;;;;;;;18.81;32.63;93630.31;5054547;28;20044;-71
2023/04/22 11:17:45;;;;;;;7.35;2.17;;;;;;;18.90;32.97;93635.41;5066096;28;20029;-71
2023/04/22 11:20:12;;;;;;;3.85;2.40;;;;;;;18.91;31.26;93631.59;5066062;28;20090;-72
2023/04/22 11:22:40;;;;;;;4.72;2.05;;;;;;;18.86;30.15;93631.91;5066196;28;20028;-72
2023/04/22 11:25:08;;;;;;;5.78;2.38;;;;;;;18.71;29.66;93632.88;5066172;28;20047;-72
2023/04/22 11:27:34;;;;;;;4.47;1.90;;;;;;;18.54;29.93;93631.53;5065943;28;20028;-72